createdAt,value
2023-04-15T00:02:41.584Z,21.59
2023-04-15T00:07:41.708Z,21.70
2023-04-15T00:12:40.022Z,21.12
2023-04-15T00:17:41.319Z,21.53
2023-04-15T00:22:39.546Z,23.04
2023-04-15T00:27:38.837Z,22.45
2023-04-15T00:32:39.107Z,23.46
2023-04-15T00:37:38.354Z,23.58
2023-04-15T00:42:36.666Z,23.78
2023-04-15T00:47:36.957Z,23.71
2023-04-15T00:52:35.284Z,26.21
2023-04-15T00:57:34.533Z,26.02
2023-04-15T01:02:33.932Z,25.63
2023-04-15T01:07:33.021Z,24.33
2023-04-15T01:12:33.340Z,24.75
2023-04-15T01:17:33.608Z,25.66
2023-04-15T01:22:30.865Z,25.77
2023-04-15T01:27:31.164Z,24.68
2023-04-15T01:32:29.488Z,25.70
2023-04-15T01:37:29.751Z,25.21
2023-04-15T01:42:29.029Z,26.22
2023-04-15T01:47:28.285Z,25.32
2023-04-15T01:52:28.591Z,26.83
2023-04-15T01:57:25.856Z,26.65
2023-04-15T02:02:25.198Z,27.06
2023-04-15T02:07:24.306Z,26.87
2023-04-15T02:12:24.594Z,26.89
2023-04-15T02:17:22.940Z,27.09
2023-04-15T02:22:22.021Z,28.50
2023-04-15T02:27:20.325Z,28.30
2023-04-15T02:32:21.612Z,28.22
2023-04-15T02:37:20.907Z,28.22
2023-04-15T02:42:20.179Z,28.72
2023-04-15T02:47:18.498Z,28.83
2023-04-15T02:52:18.755Z,28.53
2023-04-15T02:57:18.004Z,29.95
2023-04-15T03:02:17.416Z,28.76
2023-04-15T03:07:15.573Z,29.38
2023-04-15T03:12:15.902Z,29.46
2023-04-15T03:17:15.209Z,29.58
2023-04-15T03:22:13.482Z,29.49
2023-04-15T03:27:12.748Z,29.99
2023-04-15T03:32:12.027Z,31.00
2023-04-15T03:37:11.338Z,31.39
2023-04-15T03:42:10.598Z,29.68
2023-04-15T03:47:09.899Z,31.00
2023-04-15T03:52:10.191Z,31.10
2023-04-15T03:57:07.484Z,30.30
2023-04-15T04:02:08.844Z,30.40
2023-04-15T04:07:07.071Z,31.40
2023-04-15T04:12:06.341Z,30.40
2023-04-15T04:17:05.619Z,31.00
2023-04-15T04:22:04.893Z,30.80
2023-04-15T04:27:04.205Z,30.71
2023-04-15T04:32:03.473Z,31.32
2023-04-15T04:37:06.871Z,31.12
2023-04-15T04:42:01.887Z,29.71
2023-04-15T04:47:01.198Z,30.22
2023-04-15T04:52:01.488Z,29.72
2023-04-15T04:56:59.599Z,31.33
2023-04-15T05:02:00.988Z,31.03
2023-04-15T05:06:59.111Z,30.52
2023-04-15T05:11:58.379Z,30.12
2023-04-15T05:16:56.664Z,30.22
2023-04-15T05:21:55.938Z,31.84
2023-04-15T05:26:56.235Z,31.13
2023-04-15T05:31:54.502Z,31.23
2023-04-15T05:36:52.822Z,30.73
2023-04-15T05:41:53.117Z,31.63
2023-04-15T05:46:54.402Z,31.84
2023-04-15T05:51:51.691Z,30.73
2023-04-15T05:56:50.961Z,31.13
2023-04-15T06:01:51.276Z,30.24
2023-04-15T06:06:48.532Z,30.74
2023-04-15T06:11:49.819Z,31.24
2023-04-15T06:16:48.099Z,30.24
2023-04-15T06:21:47.375Z,30.35
2023-04-15T06:26:47.649Z,30.86
2023-04-15T06:31:45.995Z,30.66
2023-04-15T06:36:46.056Z,31.46
2023-04-15T06:41:45.343Z,31.15
2023-04-15T06:46:44.609Z,30.34
2023-04-15T06:51:42.918Z,30.24
2023-04-15T06:57:24.215Z,29.85
2023-04-15T07:01:41.454Z,31.04
2023-04-15T07:06:41.837Z,29.95
2023-04-15T07:11:39.895Z,31.06
2023-04-15T07:16:41.279Z,30.86
2023-04-15T07:21:39.451Z,30.76
2023-04-15T07:26:37.547Z,30.76
2023-04-15T07:31:37.836Z,30.64
2023-04-15T07:36:37.175Z,30.76
2023-04-15T07:41:35.445Z,30.55
2023-04-15T07:46:34.852Z,30.14
2023-04-15T07:51:33.953Z,29.03
2023-04-15T07:56:32.276Z,30.94
2023-04-15T08:01:32.572Z,30.14
2023-04-15T08:06:31.858Z,30.24
2023-04-15T08:11:31.183Z,31.24
2023-04-15T08:16:32.705Z,30.26
2023-04-15T08:21:31.665Z,31.04
2023-04-15T08:26:29.046Z,31.15
2023-04-15T08:31:28.109Z,30.22
2023-04-15T08:36:28.365Z,32.20
2023-04-15T08:41:26.616Z,26.07
2023-04-15T08:46:25.911Z,23.37
2023-04-15T08:51:26.147Z,22.22
2023-04-15T08:56:25.400Z,21.39
2023-04-15T09:01:23.674Z,20.06
2023-04-15T09:06:22.919Z,19.85
2023-04-15T09:11:22.217Z,19.45
2023-04-15T09:16:21.547Z,19.03
2023-04-15T09:21:20.797Z,18.23
2023-04-15T09:26:20.079Z,18.42
2023-04-15T09:31:19.386Z,18.04
2023-04-15T09:36:18.667Z,18.71
2023-04-15T09:41:17.914Z,18.02
2023-04-15T09:46:17.277Z,17.85
2023-04-15T09:51:17.394Z,18.80
2023-04-15T09:56:15.681Z,18.31
2023-04-15T10:01:15.052Z,18.23
2023-04-15T10:06:14.358Z,18.73
2023-04-15T10:11:13.612Z,19.42
2023-04-15T10:16:12.875Z,19.13
2023-04-15T10:21:12.151Z,19.21
2023-04-15T10:26:11.408Z,19.32
2023-04-15T10:31:09.693Z,17.83
2023-04-15T10:36:10.975Z,15.95
2023-04-15T10:41:09.245Z,16.74
2023-04-15T10:46:08.590Z,16.52
2023-04-15T10:51:07.845Z,16.33
2023-04-15T10:56:08.132Z,15.66
2023-04-15T11:01:06.409Z,17.52
2023-04-15T11:06:06.668Z,16.53
2023-04-15T11:11:04.911Z,17.24
2023-04-15T11:16:04.296Z,17.05
2023-04-15T11:21:05.422Z,16.36
2023-04-15T11:26:03.662Z,16.58
2023-04-15T11:31:01.950Z,17.18
2023-04-15T11:36:01.232Z,16.98
2023-04-15T11:41:00.495Z,17.77
2023-04-15T11:45:59.928Z,17.47
2023-04-15T11:51:00.058Z,17.66
2023-04-15T11:55:59.319Z,17.25
2023-04-15T12:00:57.565Z,17.17
2023-04-15T12:05:56.858Z,16.47
2023-04-15T12:10:56.146Z,16.66
2023-04-15T12:15:57.482Z,16.66
2023-04-15T12:20:54.780Z,16.55
2023-04-15T12:25:55.061Z,16.77
2023-04-15T12:30:53.359Z,17.56
2023-04-15T12:35:53.622Z,17.06
2023-04-15T12:40:51.886Z,16.97
2023-04-15T12:45:52.194Z,17.28
2023-04-15T12:50:51.448Z,17.57
2023-04-15T12:55:49.838Z,18.48
2023-04-15T13:00:48.901Z,17.57
2023-04-15T13:05:49.174Z,17.54
2023-04-15T13:10:47.460Z,18.16
2023-04-15T13:15:46.720Z,18.54
2023-04-15T13:20:46.991Z,17.66
2023-04-15T13:25:46.287Z,17.95
2023-04-15T13:30:44.563Z,18.25
2023-04-15T13:35:44.891Z,17.75
2023-04-15T13:40:43.171Z,18.97
2023-04-15T13:45:43.512Z,17.97
2023-04-15T13:50:42.041Z,17.95
2023-04-15T13:55:40.967Z,18.44
2023-04-15T14:00:40.263Z,16.59
2023-04-15T14:05:41.540Z,16.55
2023-04-15T14:10:38.815Z,19.01
2023-04-15T14:15:38.221Z,17.95
2023-04-15T14:20:37.455Z,18.59
2023-04-15T14:25:37.126Z,19.30
2023-04-15T14:30:37.183Z,19.41
2023-04-15T14:35:35.325Z,18.73
2023-04-15T14:40:33.621Z,18.44
2023-04-15T14:45:33.901Z,19.02
2023-04-15T14:50:33.369Z,19.32
2023-04-15T14:55:31.350Z,19.52
2023-04-15T15:00:31.686Z,19.82
2023-04-15T15:05:30.000Z,19.73
2023-04-15T15:10:37.880Z,19.92
2023-04-15T15:15:29.139Z,18.54
2023-04-15T15:20:28.701Z,18.54
2023-04-15T15:25:26.759Z,20.22
2023-04-15T15:30:27.960Z,20.84
2023-04-15T15:35:26.216Z,21.03
2023-04-15T15:40:26.372Z,20.95
2023-04-15T15:45:24.618Z,21.63
2023-04-15T15:50:23.865Z,21.64
2023-04-15T15:55:23.097Z,21.63
2023-04-15T16:00:22.320Z,21.83
2023-04-15T16:05:21.568Z,22.03
2023-04-15T16:10:20.719Z,22.03
2023-04-15T16:15:19.926Z,22.14
2023-04-15T16:20:18.065Z,21.74
2023-04-15T16:25:18.285Z,21.74
2023-04-15T16:30:17.399Z,21.73
2023-04-15T16:35:16.881Z,22.25
2023-04-15T16:40:14.824Z,22.64
2023-04-15T16:45:15.435Z,22.03
2023-04-15T16:50:14.484Z,21.43
2023-04-15T16:55:13.602Z,21.94
2023-04-15T17:00:12.255Z,22.24
2023-04-15T17:05:14.249Z,21.92
2023-04-15T17:10:11.678Z,21.91
2023-04-15T17:15:11.081Z,21.91
2023-04-15T17:20:12.204Z,22.51
2023-04-15T17:25:09.342Z,23.30
2023-04-15T17:30:07.727Z,24.91
2023-04-15T17:35:07.690Z,24.60
2023-04-15T17:40:08.597Z,26.73
2023-04-15T17:45:06.629Z,28.77
2023-04-15T17:50:04.774Z,29.07
2023-04-15T17:55:05.252Z,29.69
2023-04-15T18:00:04.536Z,27.44
2023-04-15T18:05:03.059Z,25.39
2023-04-15T18:10:03.178Z,24.37
2023-04-15T18:15:02.176Z,25.38
2023-04-15T18:20:03.335Z,25.38
2023-04-15T18:25:00.459Z,24.87
2023-04-15T18:29:59.925Z,26.08
2023-04-15T18:34:58.928Z,24.97
2023-04-15T18:39:58.524Z,24.74
2023-04-15T18:44:57.741Z,26.08
2023-04-15T18:49:58.032Z,25.37
2023-04-15T18:54:57.976Z,24.96
2023-04-15T18:59:55.488Z,24.14
2023-04-15T19:04:56.276Z,24.13
2023-04-15T19:09:54.952Z,25.07
2023-04-15T19:14:53.130Z,25.77
2023-04-15T19:19:53.507Z,26.18
2023-04-15T19:24:51.740Z,26.37
2023-04-15T19:29:51.056Z,26.89
2023-04-15T19:34:51.195Z,27.20
2023-04-15T19:39:50.360Z,27.40
2023-04-15T19:44:48.619Z,28.22
2023-04-15T19:49:50.349Z,27.81
2023-04-15T19:54:51.417Z,25.74
2023-04-15T19:59:47.129Z,25.54
2023-04-15T20:04:45.770Z,25.86
2023-04-15T20:09:44.707Z,25.65
2023-04-15T20:14:44.219Z,26.06
2023-04-15T20:19:45.389Z,25.74
2023-04-15T20:24:42.654Z,25.76
2023-04-15T20:29:42.155Z,25.86
2023-04-15T20:34:40.739Z,26.06
2023-04-15T20:39:41.365Z,26.46
2023-04-15T20:44:40.626Z,26.15
2023-04-15T20:49:39.630Z,26.58
2023-04-15T20:54:40.300Z,26.37
2023-04-15T20:59:37.388Z,26.87
2023-04-15T21:04:37.549Z,26.68
2023-04-15T21:09:36.491Z,25.63
2023-04-15T21:14:35.770Z,26.68
2023-04-15T21:19:35.060Z,26.98
2023-04-15T21:24:33.353Z,27.19
2023-04-15T21:29:32.651Z,27.27
2023-04-15T21:34:32.000Z,27.17
2023-04-15T21:39:31.284Z,27.08
2023-04-15T21:44:30.577Z,24.91
2023-04-15T21:49:29.857Z,26.45
2023-04-15T21:54:30.338Z,26.67
2023-04-15T21:59:28.425Z,27.17
2023-04-15T22:04:28.768Z,26.96
2023-04-15T22:09:27.025Z,26.96
2023-04-15T22:14:27.318Z,27.68
2023-04-15T22:19:27.675Z,27.78
2023-04-15T22:24:32.521Z,26.55
2023-04-15T22:29:24.029Z,27.28
2023-04-15T22:34:26.344Z,25.62
2023-04-15T22:39:21.736Z,25.21
2023-04-15T22:44:22.839Z,23.68
2023-04-15T22:49:21.117Z,26.34
2023-04-15T22:54:20.366Z,26.65
2023-04-15T22:59:21.631Z,24.92
2023-04-15T23:04:25.872Z,25.85
2023-04-15T23:09:18.122Z,25.74
2023-04-15T23:14:17.395Z,26.15
2023-04-15T23:19:17.654Z,26.26
2023-04-15T23:24:17.954Z,26.26
2023-04-15T23:29:15.232Z,26.04
2023-04-15T23:34:16.513Z,26.04
2023-04-15T23:39:14.828Z,26.56
2023-04-15T23:44:15.074Z,27.70
2023-04-15T23:49:12.394Z,27.70
2023-04-15T23:54:15.703Z,29.14
2023-04-15T23:59:15.103Z,29.57
